createdAt,value
2022-10-22T03:57:28.492Z,100179.94
2022-10-22T04:00:52.115Z,100186.58
2022-10-22T04:04:15.510Z,100189.19
2022-10-22T04:07:39.336Z,100193.53
2022-10-22T04:11:03.101Z,100193.35
2022-10-22T04:14:26.424Z,100190.71
2022-10-22T04:17:49.692Z,100186.48
2022-10-22T04:21:14.539Z,100185.06
2022-10-22T04:24:38.409Z,100177.54
2022-10-22T04:28:01.805Z,100182.79
2022-10-22T04:31:26.419Z,100186.98
2022-10-22T04:34:49.599Z,100176.84
2022-10-22T04:38:13.951Z,100173.02
2022-10-22T04:41:39.268Z,100176.67
2022-10-22T04:45:02.504Z,100193.10
2022-10-22T04:48:25.953Z,100206.20
2022-10-22T04:51:49.078Z,100208.30
2022-10-22T04:55:12.640Z,100193.27
2022-10-22T04:58:35.889Z,100199.04
2022-10-22T05:01:59.885Z,100204.45
2022-10-22T05:05:23.877Z,100197.80
2022-10-22T05:08:48.132Z,100192.05
2022-10-22T05:12:12.212Z,100197.82
2022-10-22T05:15:36.046Z,100201.34
2022-10-22T05:19:00.789Z,100199.59
2022-10-22T05:22:24.330Z,100200.98
2022-10-22T05:25:47.690Z,100201.86
2022-10-22T05:29:11.569Z,100214.09
2022-10-22T05:32:36.080Z,100222.30
2022-10-22T05:35:59.829Z,100224.59
2022-10-22T05:39:23.412Z,100219.89
2022-10-22T05:42:46.976Z,100223.05
2022-10-22T05:46:12.913Z,100228.48
2022-10-22T05:49:36.328Z,100231.48
2022-10-22T05:52:59.759Z,100228.52
2022-10-22T05:56:24.087Z,100226.98
2022-10-22T05:59:48.096Z,100227.52
2022-10-22T06:03:11.301Z,100229.83
2022-10-22T06:06:37.222Z,100231.94
2022-10-22T06:10:01.721Z,100234.75
2022-10-22T06:13:25.814Z,100236.70
2022-10-22T06:16:49.750Z,100244.42
2022-10-22T06:20:14.653Z,100244.29
2022-10-22T06:23:39.048Z,100244.66
2022-10-22T06:27:02.369Z,100253.10
2022-10-22T06:30:25.880Z,100254.34
2022-10-22T06:33:49.092Z,100259.14
2022-10-22T06:37:13.334Z,100263.04
2022-10-22T06:40:36.483Z,100263.77
2022-10-22T06:50:00.328Z,100256.38
2022-10-22T06:53:27.310Z,100254.65
2022-10-22T06:56:54.138Z,100255.73
2022-10-22T07:00:22.381Z,100261.18
2022-10-22T07:03:51.242Z,100271.20
2022-10-22T07:07:17.846Z,100279.27
2022-10-22T07:10:44.454Z,100277.54
2022-10-22T07:14:11.437Z,100286.67
2022-10-22T07:21:08.952Z,100291.09
2022-10-22T07:24:35.821Z,100290.06
2022-10-22T07:28:02.570Z,100285.67
2022-10-22T07:31:30.354Z,100296.36
2022-10-22T07:34:57.191Z,100298.11
2022-10-22T07:38:24.091Z,100294.44
2022-10-22T07:41:50.840Z,100296.02
2022-10-22T07:45:17.788Z,100297.97
2022-10-22T07:48:44.453Z,100298.52
2022-10-22T07:52:11.589Z,100299.58
2022-10-22T07:55:39.146Z,100296.10
2022-10-22T07:59:06.043Z,100292.26
2022-10-22T08:02:32.794Z,100296.83
2022-10-22T08:06:00.147Z,100300.69
2022-10-22T08:09:26.965Z,100304.05
2022-10-22T08:12:53.710Z,100315.97
2022-10-22T08:16:20.619Z,100307.73
2022-10-22T08:19:47.431Z,100301.95
2022-10-22T08:23:14.524Z,100309.86
2022-10-22T08:26:42.063Z,100307.79
2022-10-22T08:30:10.946Z,100315.54
2022-10-22T08:33:39.084Z,100319.59
2022-10-22T08:37:08.547Z,100313.86
2022-10-22T08:40:39.408Z,100316.55
2022-10-22T08:44:17.857Z,100316.05
2022-10-22T08:47:59.018Z,100315.71
2022-10-22T08:51:28.333Z,100316.10
2022-10-22T08:54:58.238Z,100317.16
2022-10-22T08:58:26.381Z,100319.80
2022-10-22T09:01:55.540Z,100319.78
2022-10-22T09:05:34.960Z,100315.04
2022-10-22T09:09:03.751Z,100315.19
2022-10-22T09:12:30.901Z,100320.83
2022-10-22T09:16:01.591Z,100319.77
2022-10-22T09:19:36.090Z,100322.92
2022-10-22T09:23:27.387Z,100321.89
2022-10-22T09:26:54.263Z,100315.73
2022-10-22T09:30:22.979Z,100318.17
2022-10-22T09:33:51.934Z,100322.92
2022-10-22T09:37:20.396Z,100329.78
2022-10-22T09:40:49.885Z,100341.73
2022-10-22T09:44:16.698Z,100349.64
2022-10-22T09:48:01.081Z,100352.60
2022-10-22T09:51:42.373Z,100358.94
2022-10-22T09:55:17.909Z,100363.67
2022-10-22T09:58:51.356Z,100368.94
2022-10-22T10:02:37.408Z,100371.55
2022-10-22T10:06:07.416Z,100379.13
2022-10-22T10:09:36.424Z,100380.00
2022-10-22T10:13:11.647Z,100379.81
2022-10-22T10:16:49.284Z,100382.98
2022-10-22T10:20:34.676Z,100380.34
2022-10-22T10:24:11.943Z,100379.10
2022-10-22T10:27:42.320Z,100384.36
2022-10-22T10:31:18.709Z,100384.17
2022-10-22T10:34:53.037Z,100385.23
2022-10-22T10:38:34.158Z,100382.95
2022-10-22T10:42:07.988Z,100378.55
2022-10-22T10:45:44.748Z,100374.52
2022-10-22T10:49:18.236Z,100371.38
2022-10-22T10:52:56.442Z,100371.72
2022-10-22T10:56:39.091Z,100367.00
2022-10-22T11:00:11.044Z,100364.37
2022-10-22T11:04:07.520Z,100356.64
2022-10-22T11:07:40.628Z,100362.44
2022-10-22T11:11:13.936Z,100365.95
2022-10-22T11:14:51.983Z,100355.59
2022-10-22T11:18:23.680Z,100352.44
2022-10-22T11:21:57.578Z,100359.45
2022-10-22T11:25:30.199Z,100353.65
2022-10-22T11:29:00.225Z,100347.82
2022-10-22T11:32:29.347Z,100343.75
2022-10-22T11:35:58.616Z,100341.27
2022-10-22T11:39:36.592Z,100343.39
2022-10-22T11:43:08.644Z,100347.42
2022-10-22T11:46:44.834Z,100346.74
2022-10-22T11:50:25.367Z,100350.27
2022-10-22T11:53:58.667Z,100357.13
2022-10-22T11:57:29.854Z,100358.35
2022-10-22T12:00:58.055Z,100354.13
2022-10-22T12:04:40.806Z,100350.27
2022-10-22T12:08:24.306Z,100345.86
2022-10-22T12:11:53.449Z,100346.92
2022-10-22T12:15:28.138Z,100346.41
2022-10-22T12:19:03.072Z,100344.48
2022-10-22T12:22:31.933Z,100341.50
2022-10-22T12:25:59.467Z,100339.77
2022-10-22T12:29:28.562Z,100337.49
2022-10-22T12:32:57.091Z,100337.69
2022-10-22T12:36:23.924Z,100337.34
2022-10-22T12:39:50.668Z,100340.67
2022-10-22T12:43:19.941Z,100338.75
2022-10-22T12:46:51.758Z,100338.75
2022-10-22T12:50:26.717Z,100335.08
2022-10-22T12:53:55.441Z,100334.36
2022-10-22T12:57:24.297Z,100338.54
2022-10-22T13:00:57.323Z,100339.27
2022-10-22T13:04:35.061Z,100339.61
2022-10-22T13:08:09.984Z,100339.97
2022-10-22T13:11:41.849Z,100343.65
2022-10-22T13:15:24.436Z,100344.18
2022-10-22T13:18:52.261Z,100346.83
2022-10-22T13:22:36.334Z,100346.29
2022-10-22T13:26:05.965Z,100347.52
2022-10-22T13:29:32.526Z,100348.05
2022-10-22T13:33:02.070Z,100354.38
2022-10-22T13:36:29.150Z,100355.41
2022-10-22T13:39:55.780Z,100357.52
2022-10-22T13:43:22.830Z,100353.83
2022-10-22T13:46:50.036Z,100360.33
2022-10-22T13:50:19.744Z,100359.97
2022-10-22T13:53:46.575Z,100363.84
2022-10-22T13:57:13.392Z,100368.39
2022-10-22T14:00:42.101Z,100364.38
2022-10-22T14:04:14.637Z,100364.19
2022-10-22T14:07:42.224Z,100363.50
2022-10-22T14:11:10.879Z,100358.75
2022-10-22T14:14:38.476Z,100362.98
2022-10-22T14:18:07.257Z,100368.75
2022-10-22T14:21:39.568Z,100374.89
2022-10-22T14:25:07.133Z,100378.41
2022-10-22T14:28:41.053Z,100375.95
2022-10-22T14:32:20.192Z,100379.45
2022-10-22T14:35:49.201Z,100387.18
2022-10-22T14:39:17.799Z,100387.20
2022-10-22T14:42:48.866Z,100386.48
2022-10-22T14:46:17.963Z,100388.41
2022-10-22T14:49:45.624Z,100391.23
2022-10-22T14:53:13.752Z,100391.75
2022-10-22T14:56:40.542Z,100391.58
2022-10-22T15:00:09.912Z,100399.31
2022-10-22T15:03:37.133Z,100400.89
2022-10-22T15:07:03.908Z,100402.65
2022-10-22T15:10:30.658Z,100402.48
2022-10-22T15:13:57.259Z,100398.42
2022-10-22T15:17:24.127Z,100400.72
2022-10-22T15:20:57.740Z,100404.73
2022-10-22T15:24:24.592Z,100406.33
2022-10-22T15:27:52.571Z,100405.09
2022-10-22T15:31:47.541Z,100408.77
2022-10-22T15:35:14.509Z,100413.52
2022-10-22T15:38:41.431Z,100422.46
2022-10-22T15:42:08.449Z,100424.91
2022-10-22T15:45:35.158Z,100422.98
2022-10-22T15:49:01.739Z,100420.69
2022-10-22T15:52:28.508Z,100425.59
2022-10-22T15:55:55.309Z,100428.40
2022-10-22T15:59:22.243Z,100433.48
2022-10-22T16:02:48.889Z,100435.40
2022-10-22T16:06:15.408Z,100438.05
2022-10-22T16:09:42.122Z,100448.20
2022-10-22T16:13:08.667Z,100454.34
2022-10-22T16:16:39.611Z,100462.25
2022-10-22T16:20:07.370Z,100465.40
2022-10-22T16:23:34.571Z,100466.27
2022-10-22T16:27:01.189Z,100469.79
2022-10-22T16:30:27.871Z,100469.27
2022-10-22T16:33:54.732Z,100472.41
2022-10-22T16:37:21.933Z,100475.92
2022-10-22T16:40:49.456Z,100483.48
2022-10-22T16:44:16.322Z,100489.09
2022-10-22T16:47:45.789Z,100491.37
2022-10-22T16:51:16.029Z,100494.35
2022-10-22T16:54:42.701Z,100499.62
2022-10-22T16:58:09.582Z,100503.47
2022-10-22T17:01:40.699Z,100506.11
2022-10-22T17:05:09.558Z,100511.73
2022-10-22T17:08:36.881Z,100515.41
2022-10-22T17:12:03.751Z,100513.14
2022-10-22T17:15:30.570Z,100518.58
2022-10-22T17:18:58.189Z,100517.52
2022-10-22T17:22:25.261Z,100518.23
2022-10-22T17:25:58.567Z,100526.29
2022-10-22T17:29:27.043Z,100531.36
2022-10-22T17:32:54.564Z,100531.89
2022-10-22T17:36:22.745Z,100531.52
2022-10-22T17:39:50.125Z,100531.70
2022-10-22T17:43:16.690Z,100536.59
2022-10-22T17:46:45.309Z,100542.54
2022-10-22T17:50:13.378Z,100545.00
2022-10-22T17:53:45.656Z,100549.89
2022-10-22T17:57:13.833Z,100554.96
2022-10-22T18:00:40.759Z,100557.59
2022-10-22T18:04:09.361Z,100556.70
2022-10-22T18:07:36.006Z,100557.20
2022-10-22T18:11:06.094Z,100557.89
2022-10-22T18:14:32.721Z,100567.88
2022-10-22T18:17:59.306Z,100568.93
2022-10-22T18:21:28.174Z,100575.77
2022-10-22T18:24:54.800Z,100582.96
2022-10-22T18:28:21.796Z,100580.87
2022-10-22T18:31:49.213Z,100581.41
2022-10-22T18:35:16.019Z,100580.02
2022-10-22T18:38:43.287Z,100577.56
2022-10-22T18:42:10.378Z,100579.16
2022-10-22T18:45:37.082Z,100582.49
2022-10-22T18:49:04.472Z,100581.46
2022-10-22T18:52:31.326Z,100584.63
2022-10-22T18:55:57.961Z,100589.90
2022-10-22T18:59:26.077Z,100598.50
2022-10-22T19:02:52.794Z,100602.20
2022-10-22T19:06:26.312Z,100609.58
2022-10-22T19:09:53.012Z,100608.52
2022-10-22T19:13:23.226Z,100610.80
2022-10-22T19:16:50.312Z,100610.10
2022-10-22T19:20:17.412Z,100613.42
2022-10-22T19:27:16.909Z,100613.77
2022-10-22T19:30:44.723Z,100619.38
2022-10-22T19:34:12.331Z,100624.80
2022-10-22T19:37:39.179Z,100632.84
2022-10-22T19:41:06.544Z,100638.96
2022-10-22T19:44:33.174Z,100643.65
2022-10-22T19:47:59.938Z,100644.33
2022-10-22T19:51:29.739Z,100651.13
2022-10-22T19:54:56.609Z,100654.22
2022-10-22T19:58:23.215Z,100657.65
2022-10-22T20:01:49.955Z,100658.60
2022-10-22T20:05:16.677Z,100657.46
2022-10-22T20:08:43.825Z,100667.02
2022-10-22T20:12:10.696Z,100668.67
2022-10-22T20:15:37.691Z,100671.55
2022-10-22T20:19:06.252Z,100673.17
2022-10-22T20:22:32.927Z,100676.21
2022-10-22T20:25:59.556Z,100680.12
2022-10-22T20:29:26.234Z,100679.64
2022-10-22T20:32:53.250Z,100681.46
2022-10-22T20:36:22.132Z,100679.77
2022-10-22T20:39:49.752Z,100679.46
2022-10-22T20:43:16.406Z,100675.34
2022-10-22T20:46:43.916Z,100677.15
2022-10-22T20:50:13.485Z,100678.27
2022-10-22T20:53:40.443Z,100680.23
2022-10-22T20:57:07.369Z,100680.29
2022-10-22T21:00:36.082Z,100684.93
2022-10-22T21:04:03.039Z,100688.36
2022-10-22T21:07:29.701Z,100693.73
2022-10-22T21:10:56.430Z,100689.96
2022-10-22T21:14:24.241Z,100692.19
2022-10-22T21:17:51.869Z,100691.96
2022-10-22T21:21:20.001Z,100693.48
2022-10-22T21:24:46.920Z,100695.72
2022-10-22T21:28:13.738Z,100699.71
2022-10-22T21:31:41.030Z,100693.89
2022-10-22T21:35:08.617Z,100694.71
2022-10-22T21:38:35.670Z,100693.66
2022-10-22T21:42:02.394Z,100693.65
2022-10-22T21:45:29.163Z,100695.89
2022-10-22T21:49:01.489Z,100697.13
2022-10-22T21:52:28.694Z,100698.86
2022-10-22T21:55:55.480Z,100700.83
2022-10-22T21:59:22.056Z,100701.05
2022-10-22T22:02:48.983Z,100700.23
2022-10-22T22:06:21.129Z,100707.65
2022-10-22T22:09:49.578Z,100714.04
2022-10-22T22:13:17.351Z,100717.09
2022-10-22T22:16:44.009Z,100722.05
2022-10-22T22:20:12.153Z,100723.55
2022-10-22T22:23:42.062Z,100722.10
2022-10-22T22:27:09.348Z,100723.68
2022-10-22T22:30:36.476Z,100728.23
2022-10-22T22:34:04.578Z,100729.77
2022-10-22T22:37:31.297Z,100728.85
2022-10-22T22:40:59.452Z,100731.08
2022-10-22T22:44:26.601Z,100725.57
2022-10-22T22:47:53.473Z,100726.38
